sensor_id;sensor_type;location;lat;lon;timestamp;pressure;altitude;pressure_sealevel;temperature;humidity
17785;BME280;9016;53.582;10.062;2023-11-21T00:00:05;100920.88;;;11.42;96.13
17785;BME280;9016;53.582;10.062;2023-11-21T00:02:38;100917.94;;;11.46;95.60
17785;BME280;9016;53.582;10.062;2023-11-21T00:05:07;100921.06;;;11.25;95.40
17785;BME280;9016;53.582;10.062;2023-11-21T00:07:38;100920.06;;;11.12;95.17
17785;BME280;9016;53.582;10.062;2023-11-21T00:10:07;100925.03;;;10.88;94.76
17785;BME280;9016;53.582;10.062;2023-11-21T00:12:35;100934.50;;;10.78;94.50
17785;BME280;9016;53.582;10.062;2023-11-21T00:15:04;100942.03;;;10.71;94.07
17785;BME280;9016;53.582;10.062;2023-11-21T00:17:36;100946.16;;;10.61;93.71
17785;BME280;9016;53.582;10.062;2023-11-21T00:20:06;100948.91;;;10.60;94.28
17785;BME280;9016;53.582;10.062;2023-11-21T00:22:34;100947.16;;;10.74;94.73
17785;BME280;9016;53.582;10.062;2023-11-21T00:25:05;100950.78;;;10.73;93.95
17785;BME280;9016;53.582;10.062;2023-11-21T00:27:36;100956.59;;;10.80;94.66
17785;BME280;9016;53.582;10.062;2023-11-21T00:30:05;100961.09;;;10.64;93.61
17785;BME280;9016;53.582;10.062;2023-11-21T00:32:34;100955.09;;;10.60;93.51
17785;BME280;9016;53.582;10.062;2023-11-21T00:35:03;100963.94;;;10.45;93.45
17785;BME280;9016;53.582;10.062;2023-11-21T00:37:32;100965.50;;;10.49;93.62
17785;BME280;9016;53.582;10.062;2023-11-21T00:40:00;100978.97;;;10.46;93.74
17785;BME280;9016;53.582;10.062;2023-11-21T00:42:33;100981.09;;;10.24;94.25
17785;BME280;9016;53.582;10.062;2023-11-21T00:45:01;100978.22;;;10.29;94.83
17785;BME280;9016;53.582;10.062;2023-11-21T00:47:30;100988.22;;;10.24;96.96
17785;BME280;9016;53.582;10.062;2023-11-21T00:49:58;100985.06;;;10.17;95.86
17785;BME280;9016;53.582;10.062;2023-11-21T00:52:26;100987.53;;;10.20;95.34
17785;BME280;9016;53.582;10.062;2023-11-21T00:54:54;100997.69;;;10.14;95.17
17785;BME280;9016;53.582;10.062;2023-11-21T00:57:22;101004.09;;;10.10;94.95
17785;BME280;9016;53.582;10.062;2023-11-21T00:59:52;101006.03;;;10.06;95.07
17785;BME280;9016;53.582;10.062;2023-11-21T01:02:20;101012.09;;;10.10;94.68
17785;BME280;9016;53.582;10.062;2023-11-21T01:04:48;101012.97;;;10.10;95.53
17785;BME280;9016;53.582;10.062;2023-11-21T01:07:16;101022.66;;;10.11;95.25
17785;BME280;9016;53.582;10.062;2023-11-21T01:09:47;101022.19;;;10.03;94.57
17785;BME280;9016;53.582;10.062;2023-11-21T01:12:15;101023.44;;;9.96;94.36
17785;BME280;9016;53.582;10.062;2023-11-21T01:14:44;101032.66;;;10.06;95.32
17785;BME280;9016;53.582;10.062;2023-11-21T01:17:13;101030.59;;;9.95;94.19
17785;BME280;9016;53.582;10.062;2023-11-21T01:19:42;101047.03;;;9.86;94.00
17785;BME280;9016;53.582;10.062;2023-11-21T01:22:10;101041.66;;;9.71;94.51
17785;BME280;9016;53.582;10.062;2023-11-21T01:24:38;101053.28;;;9.85;94.31
17785;BME280;9016;53.582;10.062;2023-11-21T01:27:06;101048.19;;;9.98;94.44
17785;BME280;9016;53.582;10.062;2023-11-21T01:29:35;101062.13;;;10.03;93.08
17785;BME280;9016;53.582;10.062;2023-11-21T01:32:04;101054.47;;;9.97;92.41
17785;BME280;9016;53.582;10.062;2023-11-21T01:34:36;101053.69;;;9.95;92.63
17785;BME280;9016;53.582;10.062;2023-11-21T01:37:05;101054.97;;;10.03;93.17
17785;BME280;9016;53.582;10.062;2023-11-21T01:39:33;101066.69;;;10.01;92.06
17785;BME280;9016;53.582;10.062;2023-11-21T01:42:01;101065.63;;;10.03;90.64
17785;BME280;9016;53.582;10.062;2023-11-21T01:44:29;101077.03;;;9.90;89.97
17785;BME280;9016;53.582;10.062;2023-11-21T01:46:57;101073.41;;;9.91;90.39
17785;BME280;9016;53.582;10.062;2023-11-21T01:49:25;101069.41;;;9.99;90.12
17785;BME280;9016;53.582;10.062;2023-11-21T01:51:55;101076.84;;;9.93;90.73
17785;BME280;9016;53.582;10.062;2023-11-21T01:54:23;101067.69;;;9.81;89.37
17785;BME280;9016;53.582;10.062;2023-11-21T01:56:51;101070.53;;;9.78;88.48
17785;BME280;9016;53.582;10.062;2023-11-21T01:59:20;101082.25;;;9.91;89.11
17785;BME280;9016;53.582;10.062;2023-11-21T02:01:49;101078.59;;;9.77;87.93
17785;BME280;9016;53.582;10.062;2023-11-21T02:04:18;101088.94;;;9.83;88.88
17785;BME280;9016;53.582;10.062;2023-11-21T02:06:46;101087.28;;;9.63;87.98
17785;BME280;9016;53.582;10.062;2023-11-21T02:09:16;101097.78;;;9.66;87.91
17785;BME280;9016;53.582;10.062;2023-11-21T02:11:44;101092.22;;;9.71;88.31
17785;BME280;9016;53.582;10.062;2023-11-21T02:14:11;101104.88;;;9.66;86.66
17785;BME280;9016;53.582;10.062;2023-11-21T02:16:40;101103.81;;;9.70;87.24
17785;BME280;9016;53.582;10.062;2023-11-21T02:19:12;101102.16;;;9.67;87.83
17785;BME280;9016;53.582;10.062;2023-11-21T02:21:46;101115.22;;;9.72;87.24
17785;BME280;9016;53.582;10.062;2023-11-21T02:24:18;101118.19;;;9.66;86.59
17785;BME280;9016;53.582;10.062;2023-11-21T02:26:46;101113.09;;;9.61;85.36
17785;BME280;9016;53.582;10.062;2023-11-21T02:29:15;101107.75;;;9.61;85.22
17785;BME280;9016;53.582;10.062;2023-11-21T02:31:45;101124.59;;;9.62;87.13
17785;BME280;9016;53.582;10.062;2023-11-21T02:34:18;101128.34;;;9.58;86.05
17785;BME280;9016;53.582;10.062;2023-11-21T02:36:47;101129.50;;;9.52;86.53
17785;BME280;9016;53.582;10.062;2023-11-21T02:39:16;101136.25;;;9.59;87.00
17785;BME280;9016;53.582;10.062;2023-11-21T02:41:45;101132.88;;;9.56;85.91
17785;BME280;9016;53.582;10.062;2023-11-21T02:44:13;101143.97;;;9.47;86.38
17785;BME280;9016;53.582;10.062;2023-11-21T02:46:41;101145.09;;;9.60;86.34
17785;BME280;9016;53.582;10.062;2023-11-21T02:49:09;101143.13;;;9.63;86.73
17785;BME280;9016;53.582;10.062;2023-11-21T02:51:38;101148.84;;;9.56;85.67
17785;BME280;9016;53.582;10.062;2023-11-21T02:54:06;101148.75;;;9.57;86.12
17785;BME280;9016;53.582;10.062;2023-11-21T02:56:35;101145.81;;;9.63;85.96
17785;BME280;9016;53.582;10.062;2023-11-21T02:59:05;101148.63;;;9.60;86.17
17785;BME280;9016;53.582;10.062;2023-11-21T03:01:33;101155.41;;;9.49;85.26
17785;BME280;9016;53.582;10.062;2023-11-21T03:04:01;101159.81;;;9.50;85.62
17785;BME280;9016;53.582;10.062;2023-11-21T03:06:29;101152.03;;;9.45;86.22
17785;BME280;9016;53.582;10.062;2023-11-21T03:08:57;101160.97;;;9.61;86.15
17785;BME280;9016;53.582;10.062;2023-11-21T03:11:25;101161.94;;;9.60;86.55
17785;BME280;9016;53.582;10.062;2023-11-21T03:13:53;101164.50;;;9.62;85.27
17785;BME280;9016;53.582;10.062;2023-11-21T03:16:23;101164.19;;;9.51;85.94
17785;BME280;9016;53.582;10.062;2023-11-21T03:18:51;101168.50;;;9.53;85.86
17785;BME280;9016;53.582;10.062;2023-11-21T03:21:19;101165.38;;;9.62;85.65
17785;BME280;9016;53.582;10.062;2023-11-21T03:23:47;101178.31;;;9.70;85.61
17785;BME280;9016;53.582;10.062;2023-11-21T03:26:15;101177.72;;;9.63;84.73
17785;BME280;9016;53.582;10.062;2023-11-21T03:28:43;101185.50;;;9.68;84.97
17785;BME280;9016;53.582;10.062;2023-11-21T03:31:12;101188.94;;;9.70;84.65
17785;BME280;9016;53.582;10.062;2023-11-21T03:33:44;101190.56;;;9.72;84.94
17785;BME280;9016;53.582;10.062;2023-11-21T03:36:14;101192.44;;;9.70;83.89
17785;BME280;9016;53.582;10.062;2023-11-21T03:38:42;101204.72;;;9.56;83.78
17785;BME280;9016;53.582;10.062;2023-11-21T03:41:10;101202.63;;;9.62;84.00
17785;BME280;9016;53.582;10.062;2023-11-21T03:43:38;101208.50;;;9.69;84.44
17785;BME280;9016;53.582;10.062;2023-11-21T03:46:06;101209.94;;;9.57;83.79
17785;BME280;9016;53.582;10.062;2023-11-21T03:48:35;101209.94;;;9.57;84.49
17785;BME280;9016;53.582;10.062;2023-11-21T03:51:05;101219.03;;;9.53;84.42
17785;BME280;9016;53.582;10.062;2023-11-21T03:53:33;101216.13;;;9.58;84.34
17785;BME280;9016;53.582;10.062;2023-11-21T03:56:02;101229.53;;;9.56;83.94
17785;BME280;9016;53.582;10.062;2023-11-21T03:58:30;101235.28;;;9.66;84.61
17785;BME280;9016;53.582;10.062;2023-11-21T04:00:58;101242.78;;;9.75;83.71
17785;BME280;9016;53.582;10.062;2023-11-21T04:03:26;101251.06;;;9.69;83.93
17785;BME280;9016;53.582;10.062;2023-11-21T04:05:54;101245.75;;;9.69;83.62
17785;BME280;9016;53.582;10.062;2023-11-21T04:08:23;101250.06;;;9.71;83.61
17785;BME280;9016;53.582;10.062;2023-11-21T04:10:52;101251.22;;;9.66;84.29
17785;BME280;9016;53.582;10.062;2023-11-21T04:13:22;101258.16;;;9.51;84.12
17785;BME280;9016;53.582;10.062;2023-11-21T04:15:50;101257.00;;;9.57;85.17
17785;BME280;9016;53.582;10.062;2023-11-21T04:18:18;101256.69;;;9.63;84.86
17785;BME280;9016;53.582;10.062;2023-11-21T04:20:46;101254.53;;;9.52;84.45
17785;BME280;9016;53.582;10.062;2023-11-21T04:23:14;101266.47;;;9.62;83.96
17785;BME280;9016;53.582;10.062;2023-11-21T04:25:44;101284.66;;;9.71;83.35
17785;BME280;9016;53.582;10.062;2023-11-21T04:28:12;101281.56;;;9.62;83.86
17785;BME280;9016;53.582;10.062;2023-11-21T04:30:40;101285.03;;;9.64;84.56
17785;BME280;9016;53.582;10.062;2023-11-21T04:33:08;101289.47;;;9.63;83.80
17785;BME280;9016;53.582;10.062;2023-11-21T04:35:36;101295.41;;;9.51;83.50
17785;BME280;9016;53.582;10.062;2023-11-21T04:38:04;101295.66;;;9.64;84.41
17785;BME280;9016;53.582;10.062;2023-11-21T04:40:32;101299.84;;;9.51;83.95
17785;BME280;9016;53.582;10.062;2023-11-21T04:43:02;101294.53;;;9.51;84.03
17785;BME280;9016;53.582;10.062;2023-11-21T04:45:30;101296.53;;;9.46;84.02
17785;BME280;9016;53.582;10.062;2023-11-21T04:47:59;101303.56;;;9.47;85.00
17785;BME280;9016;53.582;10.062;2023-11-21T04:50:27;101304.28;;;9.50;84.42
17785;BME280;9016;53.582;10.062;2023-11-21T04:52:55;101305.72;;;9.57;83.52
17785;BME280;9016;53.582;10.062;2023-11-21T04:55:23;101308.41;;;9.39;83.52
17785;BME280;9016;53.582;10.062;2023-11-21T04:57:54;101307.81;;;9.51;83.63
17785;BME280;9016;53.582;10.062;2023-11-21T05:00:24;101311.13;;;9.56;84.09
17785;BME280;9016;53.582;10.062;2023-11-21T05:02:52;101315.38;;;9.60;83.87
17785;BME280;9016;53.582;10.062;2023-11-21T05:05:20;101323.19;;;9.63;83.36
17785;BME280;9016;53.582;10.062;2023-11-21T05:07:49;101326.38;;;9.71;83.78
17785;BME280;9016;53.582;10.062;2023-11-21T05:10:17;101332.13;;;9.62;82.51
17785;BME280;9016;53.582;10.062;2023-11-21T05:12:45;101334.88;;;9.60;83.17
17785;BME280;9016;53.582;10.062;2023-11-21T05:15:14;101336.16;;;9.70;82.46
17785;BME280;9016;53.582;10.062;2023-11-21T05:17:45;101338.31;;;9.62;82.25
17785;BME280;9016;53.582;10.062;2023-11-21T05:20:16;101344.06;;;9.53;82.71
17785;BME280;9016;53.582;10.062;2023-11-21T05:22:48;101338.94;;;9.49;81.97
17785;BME280;9016;53.582;10.062;2023-11-21T05:25:16;101344.69;;;9.40;82.95
17785;BME280;9016;53.582;10.062;2023-11-21T05:27:45;101354.00;;;9.50;84.28
17785;BME280;9016;53.582;10.062;2023-11-21T05:30:13;101351.97;;;9.55;83.31
17785;BME280;9016;53.582;10.062;2023-11-21T05:32:41;101356.34;;;9.56;82.28
17785;BME280;9016;53.582;10.062;2023-11-21T05:35:11;101353.97;;;9.68;82.60
17785;BME280;9016;53.582;10.062;2023-11-21T05:37:43;101360.59;;;9.60;82.54
17785;BME280;9016;53.582;10.062;2023-11-21T05:40:12;101364.84;;;9.64;82.79
17785;BME280;9016;53.582;10.062;2023-11-21T05:42:41;101369.31;;;9.63;81.93
17785;BME280;9016;53.582;10.062;2023-11-21T05:45:09;101376.63;;;9.58;82.25
17785;BME280;9016;53.582;10.062;2023-11-21T05:47:40;101380.38;;;9.54;81.58
17785;BME280;9016;53.582;10.062;2023-11-21T05:50:09;101370.53;;;9.56;82.40
17785;BME280;9016;53.582;10.062;2023-11-21T05:52:44;101381.53;;;9.67;82.35
17785;BME280;9016;53.582;10.062;2023-11-21T05:55:13;101383.47;;;9.64;81.77
17785;BME280;9016;53.582;10.062;2023-11-21T05:57:42;101390.75;;;9.60;81.82
17785;BME280;9016;53.582;10.062;2023-11-21T06:00:12;101399.72;;;9.58;82.10
17785;BME280;9016;53.582;10.062;2023-11-21T06:02:42;101411.88;;;9.63;82.40
17785;BME280;9016;53.582;10.062;2023-11-21T06:05:10;101409.38;;;9.60;81.76
17785;BME280;9016;53.582;10.062;2023-11-21T06:07:38;101404.75;;;9.64;81.53
17785;BME280;9016;53.582;10.062;2023-11-21T06:10:10;101418.00;;;9.65;81.77
17785;BME280;9016;53.582;10.062;2023-11-21T06:12:39;101422.25;;;9.69;81.66
17785;BME280;9016;53.582;10.062;2023-11-21T06:15:10;101427.41;;;9.72;81.14
17785;BME280;9016;53.582;10.062;2023-11-21T06:17:41;101432.09;;;9.67;81.48
17785;BME280;9016;53.582;10.062;2023-11-21T06:20:10;101441.66;;;9.71;80.91
17785;BME280;9016;53.582;10.062;2023-11-21T06:22:42;101444.91;;;9.78;81.22
17785;BME280;9016;53.582;10.062;2023-11-21T06:25:13;101450.53;;;9.72;80.81
17785;BME280;9016;53.582;10.062;2023-11-21T06:27:42;101453.56;;;9.63;81.17
17785;BME280;9016;53.582;10.062;2023-11-21T06:30:11;101456.19;;;9.64;81.84
17785;BME280;9016;53.582;10.062;2023-11-21T06:32:41;101451.28;;;9.74;81.46
17785;BME280;9016;53.582;10.062;2023-11-21T06:35:13;101460.06;;;9.76;81.09
17785;BME280;9016;53.582;10.062;2023-11-21T06:37:43;101460.41;;;9.88;80.65
17785;BME280;9016;53.582;10.062;2023-11-21T06:40:17;101464.13;;;9.84;80.70
17785;BME280;9016;53.582;10.062;2023-11-21T06:42:47;101470.19;;;9.88;80.18
17785;BME280;9016;53.582;10.062;2023-11-21T06:45:17;101477.56;;;9.81;80.36
17785;BME280;9016;53.582;10.062;2023-11-21T06:47:47;101483.97;;;9.77;80.17
17785;BME280;9016;53.582;10.062;2023-11-21T06:50:15;101486.16;;;9.88;79.66
17785;BME280;9016;53.582;10.062;2023-11-21T06:52:43;101483.56;;;9.86;79.97
17785;BME280;9016;53.582;10.062;2023-11-21T06:55:11;101481.19;;;9.80;79.52
17785;BME280;9016;53.582;10.062;2023-11-21T06:57:41;101496.16;;;9.83;79.27
17785;BME280;9016;53.582;10.062;2023-11-21T07:00:10;101488.44;;;9.77;79.44
17785;BME280;9016;53.582;10.062;2023-11-21T07:02:39;101501.75;;;9.77;79.38
17785;BME280;9016;53.582;10.062;2023-11-21T07:05:07;101501.75;;;9.77;78.94
17785;BME280;9016;53.582;10.062;2023-11-21T07:07:36;101518.63;;;9.76;79.40
17785;BME280;9016;53.582;10.062;2023-11-21T07:10:05;101514.91;;;9.80;78.98
17785;BME280;9016;53.582;10.062;2023-11-21T07:12:38;101513.41;;;9.93;79.23
17785;BME280;9016;53.582;10.062;2023-11-21T07:15:10;101519.31;;;9.81;79.17
17785;BME280;9016;53.582;10.062;2023-11-21T07:17:38;101527.22;;;9.82;79.04
17785;BME280;9016;53.582;10.062;2023-11-21T07:20:10;101532.78;;;9.96;79.00
17785;BME280;9016;53.582;10.062;2023-11-21T07:22:38;101538.97;;;9.97;79.09
17785;BME280;9016;53.582;10.062;2023-11-21T07:25:10;101545.56;;;10.09;79.09
17785;BME280;9016;53.582;10.062;2023-11-21T07:27:38;101554.69;;;10.03;78.10
17785;BME280;9016;53.582;10.062;2023-11-21T07:30:09;101554.06;;;9.96;79.30
17785;BME280;9016;53.582;10.062;2023-11-21T07:32:37;101572.00;;;9.93;78.27
17785;BME280;9016;53.582;10.062;2023-11-21T07:35:08;101564.25;;;9.87;78.93
17785;BME280;9016;53.582;10.062;2023-11-21T07:37:36;101563.84;;;9.77;78.80
17785;BME280;9016;53.582;10.062;2023-11-21T07:40:06;101570.06;;;9.76;78.23
17785;BME280;9016;53.582;10.062;2023-11-21T07:42:35;101573.69;;;9.75;78.74
17785;BME280;9016;53.582;10.062;2023-11-21T07:45:04;101575.41;;;9.76;78.75
17785;BME280;9016;53.582;10.062;2023-11-21T07:47:35;101583.19;;;9.81;78.65
17785;BME280;9016;53.582;10.062;2023-11-21T07:50:04;101582.25;;;9.82;78.48
17785;BME280;9016;53.582;10.062;2023-11-21T07:52:34;101592.22;;;9.97;78.63
17785;BME280;9016;53.582;10.062;2023-11-21T07:55:03;101585.28;;;9.93;78.08
17785;BME280;9016;53.582;10.062;2023-11-21T07:57:31;101586.38;;;9.89;77.80
17785;BME280;9016;53.582;10.062;2023-11-21T07:59:59;101591.69;;;9.89;77.53
17785;BME280;9016;53.582;10.062;2023-11-21T08:02:27;101585.56;;;9.87;78.15
17785;BME280;9016;53.582;10.062;2023-11-21T08:04:57;101592.31;;;9.75;77.75
17785;BME280;9016;53.582;10.062;2023-11-21T08:07:25;101593.88;;;9.79;78.08
17785;BME280;9016;53.582;10.062;2023-11-21T08:09:53;101590.50;;;9.76;77.83
17785;BME280;9016;53.582;10.062;2023-11-21T08:12:23;101597.88;;;9.89;77.30
17785;BME280;9016;53.582;10.062;2023-11-21T08:14:54;101609.13;;;9.96;77.89
17785;BME280;9016;53.582;10.062;2023-11-21T08:17:22;101611.25;;;10.08;77.06
17785;BME280;9016;53.582;10.062;2023-11-21T08:19:50;101608.41;;;10.13;76.66
17785;BME280;9016;53.582;10.062;2023-11-21T08:22:20;101617.34;;;10.12;76.76
17785;BME280;9016;53.582;10.062;2023-11-21T08:24:48;101625.44;;;10.29;76.35
17785;BME280;9016;53.582;10.062;2023-11-21T08:27:17;101622.44;;;10.36;75.41
17785;BME280;9016;53.582;10.062;2023-11-21T08:29:45;101625.59;;;10.44;75.09
17785;BME280;9016;53.582;10.062;2023-11-21T08:32:13;101633.56;;;10.26;74.48
17785;BME280;9016;53.582;10.062;2023-11-21T08:34:41;101630.97;;;10.24;75.38
17785;BME280;9016;53.582;10.062;2023-11-21T08:37:11;101633.13;;;10.16;75.23
17785;BME280;9016;53.582;10.062;2023-11-21T08:39:43;101633.44;;;10.09;75.63
17785;BME280;9016;53.582;10.062;2023-11-21T08:42:11;101644.34;;;10.02;76.42
17785;BME280;9016;53.582;10.062;2023-11-21T08:44:40;101650.41;;;10.06;75.45
17785;BME280;9016;53.582;10.062;2023-11-21T08:47:08;101658.88;;;10.16;74.96
17785;BME280;9016;53.582;10.062;2023-11-21T08:49:36;101645.75;;;10.11;74.17
17785;BME280;9016;53.582;10.062;2023-11-21T08:52:05;101662.97;;;10.02;75.03
17785;BME280;9016;53.582;10.062;2023-11-21T08:54:33;101670.09;;;10.02;75.36
17785;BME280;9016;53.582;10.062;2023-11-21T08:57:03;101672.75;;;10.02;74.46
17785;BME280;9016;53.582;10.062;2023-11-21T08:59:31;101680.44;;;10.10;74.86
17785;BME280;9016;53.582;10.062;2023-11-21T09:02:03;101688.28;;;10.13;74.48
17785;BME280;9016;53.582;10.062;2023-11-21T09:04:31;101687.94;;;10.00;73.94
17785;BME280;9016;53.582;10.062;2023-11-21T09:06:59;101697.31;;;10.10;74.73
17785;BME280;9016;53.582;10.062;2023-11-21T09:09:27;101690.19;;;9.89;75.39
17785;BME280;9016;53.582;10.062;2023-11-21T09:11:56;101689.28;;;9.90;75.39
17785;BME280;9016;53.582;10.062;2023-11-21T09:14:28;101697.38;;;10.07;75.02
17785;BME280;9016;53.582;10.062;2023-11-21T09:16:56;101698.91;;;10.14;76.04
17785;BME280;9016;53.582;10.062;2023-11-21T09:19:24;101709.41;;;10.17;75.54
17785;BME280;9016;53.582;10.062;2023-11-21T09:21:53;101715.88;;;10.12;75.68
17785;BME280;9016;53.582;10.062;2023-11-21T09:24:21;101719.28;;;10.15;75.93
17785;BME280;9016;53.582;10.062;2023-11-21T09:26:49;101724.44;;;10.18;75.81
17785;BME280;9016;53.582;10.062;2023-11-21T09:29:17;101725.09;;;10.03;76.28
17785;BME280;9016;53.582;10.062;2023-11-21T09:31:46;101727.19;;;10.17;77.04
17785;BME280;9016;53.582;10.062;2023-11-21T09:34:14;101728.81;;;9.99;75.78
17785;BME280;9016;53.582;10.062;2023-11-21T09:36:44;101724.84;;;10.09;76.80
17785;BME280;9016;53.582;10.062;2023-11-21T09:39:12;101732.72;;;10.12;77.34
17785;BME280;9016;53.582;10.062;2023-11-21T09:41:44;101731.47;;;10.21;76.53
17785;BME280;9016;53.582;10.062;2023-11-21T09:44:24;101740.72;;;10.12;76.94
17785;BME280;9016;53.582;10.062;2023-11-21T09:46:59;101744.78;;;10.21;77.15
17785;BME280;9016;53.582;10.062;2023-11-21T09:49:28;101745.41;;;10.27;77.19
17785;BME280;9016;53.582;10.062;2023-11-21T09:52:01;101745.41;;;10.27;77.24
17785;BME280;9016;53.582;10.062;2023-11-21T09:54:31;101752.50;;;10.27;77.30
17785;BME280;9016;53.582;10.062;2023-11-21T09:57:00;101752.03;;;10.37;77.75
17785;BME280;9016;53.582;10.062;2023-11-21T09:59:30;101761.97;;;10.54;76.83
17785;BME280;9016;53.582;10.062;2023-11-21T10:02:00;101769.38;;;10.47;76.64
17785;BME280;9016;53.582;10.062;2023-11-21T10:04:31;101761.91;;;10.35;75.38
17785;BME280;9016;53.582;10.062;2023-11-21T10:06:59;101770.69;;;10.37;76.01
17785;BME280;9016;53.582;10.062;2023-11-21T10:09:28;101776.91;;;10.58;74.87
17785;BME280;9016;53.582;10.062;2023-11-21T10:11:56;101780.44;;;10.38;74.61
17785;BME280;9016;53.582;10.062;2023-11-21T10:14:27;101777.03;;;10.55;75.14
17785;BME280;9016;53.582;10.062;2023-11-21T10:16:57;101769.50;;;10.44;74.35
17785;BME280;9016;53.582;10.062;2023-11-21T10:19:27;101772.44;;;10.58;74.35
17785;BME280;9016;53.582;10.062;2023-11-21T10:21:55;101772.56;;;10.55;73.69
17785;BME280;9016;53.582;10.062;2023-11-21T10:24:24;101777.09;;;10.73;73.97
17785;BME280;9016;53.582;10.062;2023-11-21T10:26:54;101782.56;;;10.70;72.97
17785;BME280;9016;53.582;10.062;2023-11-21T10:29:22;101785.88;;;10.75;72.47
17785;BME280;9016;53.582;10.062;2023-11-21T10:31:50;101786.81;;;10.74;71.98
17785;BME280;9016;53.582;10.062;2023-11-21T10:34:21;101788.69;;;10.72;72.00
17785;BME280;9016;53.582;10.062;2023-11-21T10:36:50;101793.53;;;10.63;71.99
17785;BME280;9016;53.582;10.062;2023-11-21T10:39:19;101801.69;;;10.60;71.18
17785;BME280;9016;53.582;10.062;2023-11-21T10:41:50;101806.34;;;10.75;71.50
17785;BME280;9016;53.582;10.062;2023-11-21T10:44:18;101804.09;;;10.46;72.28
17785;BME280;9016;53.582;10.062;2023-11-21T10:46:49;101812.16;;;10.23;71.94
17785;BME280;9016;53.582;10.062;2023-11-21T10:49:18;101801.69;;;10.40;72.94
17785;BME280;9016;53.582;10.062;2023-11-21T10:51:47;101804.34;;;10.40;72.30
17785;BME280;9016;53.582;10.062;2023-11-21T10:54:20;101808.00;;;10.37;71.81
17785;BME280;9016;53.582;10.062;2023-11-21T10:56:49;101812.69;;;10.52;71.99
17785;BME280;9016;53.582;10.062;2023-11-21T10:59:18;101807.66;;;10.45;71.10
17785;BME280;9016;53.582;10.062;2023-11-21T11:01:49;101811.72;;;10.53;70.89
17785;BME280;9016;53.582;10.062;2023-11-21T11:04:20;101805.88;;;10.45;71.35
17785;BME280;9016;53.582;10.062;2023-11-21T11:06:55;101814.47;;;10.52;70.33
17785;BME280;9016;53.582;10.062;2023-11-21T11:09:26;101819.19;;;10.45;71.23
17785;BME280;9016;53.582;10.062;2023-11-21T11:11:54;101813.94;;;10.44;70.60
17785;BME280;9016;53.582;10.062;2023-11-21T11:14:22;101821.66;;;10.50;71.23
17785;BME280;9016;53.582;10.062;2023-11-21T11:16:56;101822.06;;;10.41;70.09
17785;BME280;9016;53.582;10.062;2023-11-21T11:19:24;101822.13;;;10.39;70.43
17785;BME280;9016;53.582;10.062;2023-11-21T11:21:58;101828.88;;;10.26;69.58
17785;BME280;9016;53.582;10.062;2023-11-21T11:24:47;101829.22;;;10.19;70.06
17785;BME280;9016;53.582;10.062;2023-11-21T11:27:29;101825.41;;;10.24;69.44
17785;BME280;9016;53.582;10.062;2023-11-21T11:30:27;101824.22;;;10.31;69.82
17785;BME280;9016;53.582;10.062;2023-11-21T11:33:10;101828.22;;;10.21;68.90
17785;BME280;9016;53.582;10.062;2023-11-21T11:35:48;101831.38;;;10.31;68.61
17785;BME280;9016;53.582;10.062;2023-11-21T11:38:21;101830.03;;;10.41;68.78
17785;BME280;9016;53.582;10.062;2023-11-21T11:40:53;101840.63;;;10.42;68.46
17785;BME280;9016;53.582;10.062;2023-11-21T11:43:25;101834.00;;;10.52;68.02
17785;BME280;9016;53.582;10.062;2023-11-21T11:45:56;101821.56;;;10.31;68.42
17785;BME280;9016;53.582;10.062;2023-11-21T11:48:25;101832.91;;;10.36;68.40
17785;BME280;9016;53.582;10.062;2023-11-21T11:51:01;101837.75;;;10.27;67.84
17785;BME280;9016;53.582;10.062;2023-11-21T11:53:36;101841.72;;;10.17;67.77
17785;BME280;9016;53.582;10.062;2023-11-21T11:56:34;101840.72;;;10.19;67.84
17785;BME280;9016;53.582;10.062;2023-11-21T11:59:04;101837.19;;;10.19;69.02
17785;BME280;9016;53.582;10.062;2023-11-21T12:01:36;101847.59;;;10.25;69.08
17785;BME280;9016;53.582;10.062;2023-11-21T12:04:24;101843.75;;;10.32;69.43
17785;BME280;9016;53.582;10.062;2023-11-21T12:07:01;101846.34;;;10.33;68.53
17785;BME280;9016;53.582;10.062;2023-11-21T12:09:37;101842.03;;;10.09;68.44
17785;BME280;9016;53.582;10.062;2023-11-21T12:12:08;101859.00;;;10.28;69.03
17785;BME280;9016;53.582;10.062;2023-11-21T12:14:36;101862.59;;;10.27;68.68
17785;BME280;9016;53.582;10.062;2023-11-21T12:17:05;101865.81;;;10.14;68.45
17785;BME280;9016;53.582;10.062;2023-11-21T12:19:36;101867.88;;;10.06;68.63
17785;BME280;9016;53.582;10.062;2023-11-21T12:22:05;101874.69;;;9.91;69.31
17785;BME280;9016;53.582;10.062;2023-11-21T12:24:34;101880.88;;;9.91;69.48
17785;BME280;9016;53.582;10.062;2023-11-21T12:27:03;101886.81;;;9.76;69.14
17785;BME280;9016;53.582;10.062;2023-11-21T12:29:32;101889.41;;;9.78;68.99
17785;BME280;9016;53.582;10.062;2023-11-21T12:32:00;101886.00;;;9.74;69.55
17785;BME280;9016;53.582;10.062;2023-11-21T12:34:29;101901.88;;;9.77;70.51
17785;BME280;9016;53.582;10.062;2023-11-21T12:36:57;101902.00;;;9.96;69.97
17785;BME280;9016;53.582;10.062;2023-11-21T12:39:26;101911.34;;;9.84;68.74
17785;BME280;9016;53.582;10.062;2023-11-21T12:41:55;101912.38;;;9.80;70.20
17785;BME280;9016;53.582;10.062;2023-11-21T12:44:23;101907.06;;;9.80;69.15
17785;BME280;9016;53.582;10.062;2023-11-21T12:46:53;101910.41;;;9.85;69.87
17785;BME280;9016;53.582;10.062;2023-11-21T12:49:22;101911.91;;;9.92;69.73
17785;BME280;9016;53.582;10.062;2023-11-21T12:51:50;101922.38;;;9.97;69.89
17785;BME280;9016;53.582;10.062;2023-11-21T12:54:19;101918.31;;;9.87;70.25
17785;BME280;9016;53.582;10.062;2023-11-21T12:56:49;101932.06;;;9.99;70.63
17785;BME280;9016;53.582;10.062;2023-11-21T12:59:17;101933.47;;;9.85;70.56
17785;BME280;9016;53.582;10.062;2023-11-21T13:01:46;101933.56;;;9.83;71.27
17785;BME280;9016;53.582;10.062;2023-11-21T13:04:19;101934.72;;;9.76;72.08
17785;BME280;9016;53.582;10.062;2023-11-21T13:06:47;101938.19;;;9.55;72.88